Time;durP1;ratioP1;P1;durP2;ratioP2;P2;SDS_P1;SDS_P2;PMS_P1;PMS_P2;Temp;Humidity;BMP_temperature;BMP_pressure;BME280_temperature;BME280_humidity;BME280_pressure;Samples;Min_cycle;Max_cycle;Signal;HPM_P1;HPM_P2
2022/11/03 00:02:02;;;;;;;26.58;11.10;;;;;;;8.19;100.00;101122.25;5032237;28;20045;-66
2022/11/03 00:04:28;;;;;;;24.70;11.32;;;;;;;8.13;100.00;101126.19;5032086;28;20037;-67
2022/11/03 00:06:54;;;;;;;23.52;10.07;;;;;;;8.11;100.00;101126.28;5032427;28;20029;-66
2022/11/03 00:09:21;;;;;;;26.70;10.18;;;;;;;8.09;100.00;101111.28;5031935;28;20059;-67
2022/11/03 00:11:51;;;;;;;23.80;11.13;;;;;;;8.06;100.00;101117.69;5031997;28;20024;-67
2022/11/03 00:14:18;;;;;;;23.77;10.68;;;;;;;7.98;100.00;101119.97;5030742;28;20022;-66
2022/11/03 00:16:44;;;;;;;26.20;10.68;;;;;;;7.85;100.00;101124.38;5030867;28;20414;-66
2022/11/03 00:19:10;;;;;;;26.38;10.95;;;;;;;7.87;100.00;101127.81;5031887;28;20033;-67
2022/11/03 00:21:37;;;;;;;23.67;11.45;;;;;;;7.71;100.00;101111.00;5031896;28;20033;-67
2022/11/03 00:24:03;;;;;;;23.77;11.90;;;;;;;7.85;100.00;101114.53;5030710;28;20025;-68
2022/11/03 00:26:31;;;;;;;20.60;11.07;;;;;;;7.88;100.00;101124.19;5030436;28;20035;-67
2022/11/03 00:29:01;;;;;;;25.23;10.57;;;;;;;7.77;100.00;101121.34;5030200;28;20033;-68
2022/11/03 00:31:29;;;;;;;28.95;11.50;;;;;;;7.77;100.00;101126.69;5030764;28;20040;-67
2022/11/03 00:33:56;;;;;;;28.98;11.50;;;;;;;7.72;100.00;101126.09;5032070;28;20026;-67
2022/11/03 00:36:26;;;;;;;28.20;12.25;;;;;;;7.63;100.00;101129.38;5032003;28;20037;-66
2022/11/03 00:38:52;;;;;;;18.58;10.85;;;;;;;7.64;100.00;101128.41;5030772;28;20130;-67
2022/11/03 00:41:19;;;;;;;23.77;11.55;;;;;;;7.66;100.00;101132.72;5030137;28;20048;-67
2022/11/03 00:43:46;;;;;;;29.23;10.88;;;;;;;7.52;100.00;101128.22;5031915;28;20072;-67
2022/11/03 00:46:12;;;;;;;21.67;10.38;;;;;;;7.40;100.00;101133.47;5030409;28;20561;-67
2022/11/03 00:48:38;;;;;;;24.10;11.90;;;;;;;7.38;100.00;101140.69;5030544;28;20029;-68
2022/11/03 00:51:06;;;;;;;31.90;13.00;;;;;;;7.55;100.00;101148.56;5030328;28;20505;-67
2022/11/03 00:53:34;;;;;;;24.48;11.00;;;;;;;7.78;100.00;101155.19;5030446;28;20033;-67
2022/11/03 00:56:01;;;;;;;18.63;9.02;;;;;;;7.88;100.00;101147.44;5031430;28;20053;-66
2022/11/03 00:58:26;;;;;;;20.40;10.38;;;;;;;7.88;100.00;101148.28;5030367;28;20021;-67
2022/11/03 01:01:01;;;;;;;23.58;9.05;;;;;;;7.75;100.00;101150.03;5031652;28;20047;-67
2022/11/03 01:03:26;;;;;;;20.58;9.48;;;;;;;7.73;100.00;101149.28;5030383;28;20076;-66
2022/11/03 01:08:36;;;;;;;20.67;9.45;;;;;;;7.59;100.00;101149.25;5031820;28;20033;-66
2022/11/03 01:13:54;;;;;;;19.67;8.57;;;;;;;7.54;100.00;101153.06;5035493;28;20063;-66
2022/11/03 01:16:20;;;;;;;22.55;8.18;;;;;;;7.49;100.00;101147.13;5035497;28;20033;-67
2022/11/03 01:18:46;;;;;;;15.40;7.93;;;;;;;7.53;100.00;101150.47;5034997;28;20045;-67
2022/11/03 01:21:12;;;;;;;14.27;7.95;;;;;;;7.55;100.00;101154.78;5033646;28;20061;-67
2022/11/03 01:23:38;;;;;;;16.98;8.35;;;;;;;7.57;100.00;101151.16;5035263;28;20398;-67
2022/11/03 01:26:08;;;;;;;15.85;8.77;;;;;;;7.57;100.00;101156.53;5034991;28;20029;-67
2022/11/03 01:28:34;;;;;;;15.77;8.25;;;;;;;7.48;100.00;101156.13;5034862;28;20033;-66
2022/11/03 01:31:27;;;;;;;17.52;7.82;;;;;;;7.50;100.00;101159.56;5033293;28;20029;-67
2022/11/03 01:33:54;;;;;;;16.95;8.40;;;;;;;7.46;100.00;101171.41;5034360;28;20387;-67
2022/11/03 01:36:20;;;;;;;23.92;9.02;;;;;;;7.41;100.00;101168.16;5034925;28;20045;-68
2022/11/03 01:38:46;;;;;;;19.77;7.78;;;;;;;7.49;100.00;101165.84;5034828;28;20026;-67
2022/11/03 01:41:15;;;;;;;17.17;8.25;;;;;;;7.52;100.00;101178.19;5034569;28;20033;-66
2022/11/03 01:43:41;;;;;;;18.20;8.10;;;;;;;7.46;100.00;101182.09;5033465;28;20030;-66
2022/11/03 01:46:14;;;;;;;18.10;7.85;;;;;;;7.51;100.00;101180.00;5033123;28;20052;-67
2022/11/03 01:48:44;;;;;;;17.58;7.35;;;;;;;7.52;100.00;101187.06;5034850;28;20034;-67
2022/11/03 01:51:14;;;;;;;15.70;7.60;;;;;;;7.44;100.00;101178.66;5034817;28;20041;-66
2022/11/03 01:53:42;;;;;;;13.93;6.78;;;;;;;7.55;100.00;101183.34;5033324;28;20030;-67
2022/11/03 01:56:09;;;;;;;20.92;5.65;;;;;;;7.51;100.00;101185.34;5032776;28;20057;-68
2022/11/03 01:58:38;;;;;;;14.52;6.47;;;;;;;7.50;100.00;101180.97;5034237;28;20032;-68
2022/11/03 02:01:04;;;;;;;16.00;6.47;;;;;;;7.44;100.00;101189.38;5032971;28;20120;-68
2022/11/03 02:03:37;;;;;;;16.63;7.00;;;;;;;7.40;100.00;101185.16;5034316;28;20043;-67
2022/11/03 02:06:03;;;;;;;19.50;7.30;;;;;;;7.43;100.00;101187.66;5032912;28;20443;-66
2022/11/03 02:08:40;;;;;;;14.82;6.35;;;;;;;7.36;100.00;101194.28;5034331;28;20512;-66
2022/11/03 02:12:06;;;;;;;15.90;6.43;;;;;;;7.35;100.00;101187.22;5033832;28;20021;-66
2022/11/03 02:14:01;;;;;;;15.70;7.05;;;;;;;7.31;100.00;101187.50;5029076;28;20398;-65
2022/11/03 02:16:30;;;;;;;18.35;7.78;;;;;;;7.22;100.00;101188.91;5034265;28;20033;-66
2022/11/03 02:18:57;;;;;;;21.85;8.50;;;;;;;7.12;100.00;101187.75;5032630;28;20482;-67
2022/11/03 02:21:23;;;;;;;19.05;8.00;;;;;;;7.22;100.00;101191.56;5033878;28;20071;-66
2022/11/03 02:24:01;;;;;;;16.02;7.78;;;;;;;7.13;100.00;101195.69;5033487;28;20025;-67
2022/11/03 02:26:27;;;;;;;16.52;6.95;;;;;;;7.19;100.00;101194.44;5032492;28;20030;-66
2022/11/03 02:28:53;;;;;;;18.45;7.07;;;;;;;7.16;100.00;101194.63;5033837;28;20103;-67
2022/11/03 02:31:26;;;;;;;18.67;6.90;;;;;;;7.18;100.00;101190.03;5032445;28;20029;-67
2022/11/03 02:34:13;;;;;;;14.20;6.60;;;;;;;7.11;100.00;101191.38;5033904;28;20033;-67
2022/11/03 02:36:45;;;;;;;18.35;7.45;;;;;;;7.00;100.00;101193.81;5034054;28;20076;-67
2022/11/03 02:39:20;;;;;;;18.83;7.43;;;;;;;7.01;100.00;101191.03;5032156;28;20083;-67
2022/11/03 02:41:48;;;;;;;21.67;8.90;;;;;;;6.97;100.00;101192.16;5033548;28;20061;-68
2022/11/03 02:44:16;;;;;;;19.63;7.68;;;;;;;6.86;100.00;101190.13;5032264;28;20032;-67
2022/11/03 02:46:44;;;;;;;19.33;7.20;;;;;;;6.96;100.00;101192.25;5033662;28;20030;-67
2022/11/03 02:49:09;;;;;;;18.40;8.77;;;;;;;6.82;100.00;101191.25;5033465;28;20037;-67
2022/11/03 02:51:35;;;;;;;19.08;8.23;;;;;;;6.84;100.00;101186.66;5032170;28;20029;-66
2022/11/03 02:54:16;;;;;;;23.95;9.13;;;;;;;6.73;100.00;101182.91;5032140;28;20033;-66
2022/11/03 02:56:52;;;;;;;18.08;8.18;;;;;;;6.70;100.00;101186.59;5033548;28;20382;-66
2022/11/03 02:59:24;;;;;;;21.92;9.45;;;;;;;6.65;100.00;101188.69;5031869;28;20029;-65
2022/11/03 03:02:07;;;;;;;18.63;8.15;;;;;;;6.72;100.00;101190.06;5032137;28;20036;-67
2022/11/03 03:04:39;;;;;;;21.13;9.38;;;;;;;6.62;100.00;101188.84;5033134;28;20026;-66
2022/11/03 03:07:10;;;;;;;25.25;9.93;;;;;;;6.62;100.00;101192.38;5032859;28;20096;-68
2022/11/03 03:10:01;;;;;;;21.38;9.05;;;;;;;6.60;100.00;101206.78;5031946;28;20022;-67
2022/11/03 03:12:29;;;;;;;27.42;9.93;;;;;;;6.54;100.00;101212.47;5032971;28;20030;-67
2022/11/03 03:14:57;;;;;;;26.80;9.50;;;;;;;6.45;100.00;101207.66;5031742;28;20457;-68
2022/11/03 03:17:45;;;;;;;18.88;7.45;;;;;;;6.44;100.00;101211.28;5032973;28;20079;-70
2022/11/03 03:20:24;;;;;;;20.88;7.70;;;;;;;6.48;100.00;101215.47;5032379;28;20118;-67
2022/11/03 03:22:57;;;;;;;23.67;7.63;;;;;;;6.53;100.00;101218.75;5032835;28;20173;-68
2022/11/03 03:25:33;;;;;;;14.77;6.90;;;;;;;6.63;100.00;101225.31;5032756;28;20029;-67
2022/11/03 03:28:07;;;;;;;21.67;6.47;;;;;;;6.70;100.00;101216.00;5031398;28;20064;-68
2022/11/03 03:30:35;;;;;;;19.73;6.90;;;;;;;6.83;100.00;101224.19;5031584;28;20209;-68
2022/11/03 03:33:03;;;;;;;18.67;7.65;;;;;;;6.98;100.00;101225.13;5032670;28;20044;-70
2022/11/03 03:35:30;;;;;;;17.83;6.63;;;;;;;7.00;100.00;101223.22;5030722;28;20033;-69
2022/11/03 03:38:02;;;;;;;15.40;6.88;;;;;;;7.10;100.00;101232.44;5031336;28;20029;-68
2022/11/03 03:40:35;;;;;;;14.85;6.55;;;;;;;7.22;100.00;101231.69;5031103;28;20041;-69
2022/11/03 03:43:05;;;;;;;20.73;6.55;;;;;;;7.24;100.00;101235.16;5032287;28;20095;-68
2022/11/03 03:45:32;;;;;;;19.95;6.45;;;;;;;7.24;100.00;101230.69;5032536;28;20041;-67
2022/11/03 03:47:59;;;;;;;15.57;5.93;;;;;;;7.29;100.00;101229.53;5032771;28;20435;-68
2022/11/03 03:50:28;;;;;;;12.27;5.60;;;;;;;7.38;100.00;101232.50;5032478;28;20038;-69
2022/11/03 03:52:59;;;;;;;13.35;5.22;;;;;;;7.31;100.00;101224.97;5032194;28;20083;-68
2022/11/03 03:55:42;;;;;;;14.63;5.05;;;;;;;7.33;100.00;101223.91;5032194;28;20041;-68
2022/11/03 03:58:11;;;;;;;11.73;4.32;;;;;;;7.24;100.00;101229.81;5031102;28;20060;-68
2022/11/03 04:00:39;;;;;;;12.75;5.82;;;;;;;7.18;100.00;101227.50;5032201;28;20030;-68
2022/11/03 04:03:05;;;;;;;20.17;4.90;;;;;;;7.13;100.00;101230.44;5032406;28;20536;-68
2022/11/03 04:05:31;;;;;;;17.10;5.15;;;;;;;7.13;100.00;101232.25;5032492;28;20030;-69
2022/11/03 04:07:57;;;;;;;12.30;5.05;;;;;;;7.13;100.00;101232.25;5032382;28;20501;-68
2022/11/03 04:10:24;;;;;;;12.00;4.90;;;;;;;7.08;100.00;101234.34;5031508;28;20040;-67
2022/11/03 04:23:45;;;;;;;20.05;5.63;;;;;;;7.04;100.00;101230.09;5036931;28;20063;-68
2022/11/03 04:26:16;;;;;;;17.58;5.20;;;;;;;7.15;100.00;101235.69;5032412;28;20121;-69
2022/11/03 04:28:43;;;;;;;15.68;5.53;;;;;;;7.16;100.00;101243.63;5030732;28;20394;-68
2022/11/03 04:31:13;;;;;;;19.23;5.43;;;;;;;7.12;100.00;101241.22;5030504;28;20091;-68
2022/11/03 04:33:40;;;;;;;14.48;5.53;;;;;;;7.10;100.00;101241.31;5031846;28;20029;-69
2022/11/03 04:36:23;;;;;;;15.82;5.28;;;;;;;7.05;100.00;101246.03;5031807;28;20030;-68
2022/11/03 04:38:51;;;;;;;12.68;4.85;;;;;;;7.08;100.00;101239.69;5030396;28;20026;-67
2022/11/03 04:41:20;;;;;;;18.35;5.65;;;;;;;7.07;100.00;101240.63;5031588;28;20041;-68
2022/11/03 04:43:46;;;;;;;16.70;5.07;;;;;;;6.94;100.00;101236.00;5031832;28;20026;-68
2022/11/03 04:46:15;;;;;;;17.10;5.25;;;;;;;6.88;100.00;101244.34;5032916;28;20025;-68
2022/11/03 04:48:41;;;;;;;14.40;5.50;;;;;;;6.81;100.00;101237.63;5035711;28;20052;-67
2022/11/03 04:51:16;;;;;;;14.05;5.20;;;;;;;6.74;100.00;101249.63;5035455;28;20478;-69
2022/11/03 04:53:49;;;;;;;14.57;4.90;;;;;;;6.71;100.00;101252.44;5035683;28;20025;-69
2022/11/03 04:56:18;;;;;;;18.00;5.72;;;;;;;6.66;100.00;101249.19;5035148;28;20049;-68
2022/11/03 04:58:47;;;;;;;17.38;5.72;;;;;;;6.70;100.00;101253.41;5034051;28;20064;-67
2022/11/03 05:01:14;;;;;;;14.00;5.10;;;;;;;6.67;100.00;101250.91;5035118;28;20037;-66
2022/11/03 05:03:42;;;;;;;11.07;4.65;;;;;;;6.62;100.00;101252.97;5035201;28;20034;-68
2022/11/03 05:06:19;;;;;;;19.13;5.15;;;;;;;6.60;100.00;101252.22;5033334;28;20402;-67
2022/11/03 05:08:49;;;;;;;21.15;5.25;;;;;;;6.56;100.00;101254.19;5033540;28;20017;-68
2022/11/03 05:11:37;;;;;;;15.88;5.00;;;;;;;6.43;100.00;101262.97;5033720;28;20072;-68
2022/11/03 05:14:25;;;;;;;15.75;5.90;;;;;;;6.45;100.00;101255.72;5033804;28;20478;-66
2022/11/03 05:16:54;;;;;;;19.23;5.45;;;;;;;6.46;100.00;101260.13;5035108;28;20025;-67
2022/11/03 05:19:32;;;;;;;21.83;5.82;;;;;;;6.37;100.00;101265.94;5034857;28;20033;-66
2022/11/03 05:22:01;;;;;;;14.32;4.82;;;;;;;6.24;100.00;101258.63;5033601;28;20030;-68
2022/11/03 05:24:28;;;;;;;20.42;5.55;;;;;;;6.36;100.00;101262.41;5034844;28;20029;-68
2022/11/03 05:26:56;;;;;;;17.35;5.30;;;;;;;6.38;100.00;101265.88;5033202;28;20042;-68
2022/11/03 05:29:29;;;;;;;15.43;5.20;;;;;;;6.32;100.00;101277.75;5034865;28;20386;-66
2022/11/03 05:31:55;;;;;;;14.18;4.75;;;;;;;6.21;100.00;101273.94;5033393;28;20024;-66
2022/11/03 05:34:29;;;;;;;19.63;5.95;;;;;;;6.13;100.00;101271.69;5034528;28;20493;-67
2022/11/03 05:36:57;;;;;;;15.13;5.35;;;;;;;6.03;100.00;101278.44;5033201;28;20033;-68
2022/11/03 05:39:45;;;;;;;15.65;4.80;;;;;;;6.05;100.00;101279.25;5034520;28;20025;-68
2022/11/03 05:42:29;;;;;;;19.98;5.57;;;;;;;6.07;100.00;101277.38;5034991;28;20369;-67
2022/11/03 05:44:55;;;;;;;16.88;7.30;;;;;;;6.02;100.00;101284.72;5033028;28;20032;-67
2022/11/03 05:47:35;;;;;;;20.80;6.15;;;;;;;5.91;100.00;101293.31;5034330;28;20538;-68
2022/11/03 05:50:17;;;;;;;17.25;5.47;;;;;;;5.92;100.00;101294.19;5032932;28;20474;-66
2022/11/03 05:52:45;;;;;;;14.82;5.78;;;;;;;5.93;100.00;101301.25;5032657;28;20029;-68
2022/11/03 05:55:30;;;;;;;21.70;6.95;;;;;;;5.91;100.00;101303.13;5032319;28;20046;-68
2022/11/03 05:57:59;;;;;;;14.02;5.07;;;;;;;5.80;100.00;101305.44;5031941;28;20079;-68
2022/11/03 06:00:46;;;;;;;13.23;5.90;;;;;;;5.83;100.00;101297.28;5032306;28;20049;-68
2022/11/03 06:03:24;;;;;;;20.60;5.57;;;;;;;5.83;100.00;101305.28;5033460;28;20037;-67
2022/11/03 06:05:51;;;;;;;22.63;6.35;;;;;;;5.84;100.00;101307.00;5033992;28;20032;-69
2022/11/03 06:08:24;;;;;;;12.98;5.40;;;;;;;5.84;100.00;101309.69;5032545;28;20033;-69
2022/11/03 06:10:54;;;;;;;20.30;6.22;;;;;;;5.80;100.00;101305.44;5032646;28;20029;-68
2022/11/03 06:13:24;;;;;;;18.27;5.63;;;;;;;5.80;100.00;101308.13;5032348;28;20026;-68
2022/11/03 06:15:56;;;;;;;12.95;6.03;;;;;;;5.72;100.00;101311.19;5033830;28;20029;-69
2022/11/03 06:18:24;;;;;;;23.42;6.05;;;;;;;5.80;100.00;101305.44;5032172;28;20057;-68
2022/11/03 06:20:55;;;;;;;17.70;5.97;;;;;;;5.86;100.00;101315.81;5033438;28;20029;-70
2022/11/03 06:23:22;;;;;;;17.58;6.03;;;;;;;5.78;100.00;101315.34;5033017;28;20466;-68
2022/11/03 06:25:51;;;;;;;17.35;5.85;;;;;;;5.84;100.00;101323.03;5033696;28;20052;-68
2022/11/03 06:28:22;;;;;;;18.27;5.80;;;;;;;5.74;100.00;101323.50;5033429;28;20033;-68
2022/11/03 06:30:48;;;;;;;15.57;5.50;;;;;;;5.72;100.00;101324.53;5032906;28;20029;-67
2022/11/03 06:33:26;;;;;;;22.90;5.97;;;;;;;5.77;100.00;101333.16;5032619;28;20040;-69
2022/11/03 06:36:00;;;;;;;18.40;5.82;;;;;;;5.74;100.00;101328.84;5033470;28;20036;-69
2022/11/03 06:38:32;;;;;;;19.30;7.18;;;;;;;5.72;100.00;101325.41;5033109;28;20029;-67
2022/11/03 06:40:58;;;;;;;28.40;10.07;;;;;;;5.80;100.00;101326.81;5031126;28;20029;-70
2022/11/03 06:43:40;;;;;;;19.27;5.45;;;;;;;5.90;100.00;101331.63;5031578;28;20032;-68
2022/11/03 06:46:21;;;;;;;22.40;6.53;;;;;;;5.91;100.00;101328.03;5031218;28;20037;-68
2022/11/03 06:48:47;;;;;;;18.52;5.45;;;;;;;5.95;100.00;101337.59;5031304;28;20033;-68
2022/11/03 06:51:27;;;;;;;16.35;4.70;;;;;;;5.99;100.00;101333.81;5032164;28;20033;-69
2022/11/03 06:53:57;;;;;;;15.07;4.10;;;;;;;5.94;100.00;101337.66;5031169;28;20041;-69
2022/11/03 06:56:35;;;;;;;14.93;5.03;;;;;;;5.90;100.00;101339.63;5030754;28;20045;-68
2022/11/03 06:59:02;;;;;;;16.00;4.80;;;;;;;5.96;100.00;101343.78;5033004;28;20128;-67
2022/11/03 07:01:32;;;;;;;12.52;5.18;;;;;;;5.94;100.00;101343.00;5032724;28;20516;-68
2022/11/03 07:04:04;;;;;;;15.43;4.70;;;;;;;5.99;100.00;101333.81;5032393;28;20466;-68
2022/11/03 07:06:34;;;;;;;17.05;6.13;;;;;;;6.09;100.00;101350.22;5032160;28;20036;-69
2022/11/03 07:09:05;;;;;;;12.00;3.80;;;;;;;6.16;100.00;101346.28;5031356;28;20110;-69
2022/11/03 07:11:37;;;;;;;18.30;4.65;;;;;;;6.21;100.00;101344.22;5030949;28;20103;-67
2022/11/03 07:14:15;;;;;;;21.20;4.47;;;;;;;6.21;100.00;101348.69;5030126;28;20538;-68
2022/11/03 07:16:49;;;;;;;16.40;3.65;;;;;;;6.23;100.00;101339.69;5030745;28;20033;-69
2022/11/03 07:19:20;;;;;;;13.02;4.00;;;;;;;6.23;100.00;101346.84;5029900;28;20029;-69
2022/11/03 07:21:50;;;;;;;12.48;3.70;;;;;;;6.26;100.00;101358.22;5031563;28;20026;-67
2022/11/03 07:24:25;;;;;;;11.63;4.05;;;;;;;6.27;100.00;101361.75;5030083;28;20103;-69
2022/11/03 07:26:58;;;;;;;16.23;3.35;;;;;;;6.32;100.00;101365.03;5031447;28;20045;-68
2022/11/03 07:29:27;;;;;;;11.18;3.65;;;;;;;6.33;100.00;101364.94;5030992;28;20088;-69
2022/11/03 07:31:53;;;;;;;14.15;3.70;;;;;;;6.70;100.00;101376.31;5031992;28;20034;-69
2022/11/03 07:34:23;;;;;;;14.05;4.03;;;;;;;6.76;100.00;101378.69;5029843;28;20056;-67
2022/11/03 07:36:50;;;;;;;15.57;4.07;;;;;;;6.57;100.00;101377.97;5030383;28;20099;-68
2022/11/03 07:39:19;;;;;;;20.17;4.28;;;;;;;6.48;100.00;101370.44;5032135;28;20506;-68
2022/11/03 07:41:44;;;;;;;17.02;4.32;;;;;;;6.43;100.00;101372.47;5030220;28;20029;-69
2022/11/03 07:44:19;;;;;;;12.30;3.53;;;;;;;6.47;100.00;101377.56;5031080;28;20063;-68
2022/11/03 07:46:46;;;;;;;22.92;4.05;;;;;;;6.57;100.00;101378.81;5031735;28;20091;-68
2022/11/03 07:49:28;;;;;;;13.25;3.53;;;;;;;6.60;100.00;101377.78;5029650;28;20110;-69
2022/11/03 07:51:57;;;;;;;21.00;4.38;;;;;;;6.61;100.00;101382.19;5031490;28;20490;-69
2022/11/03 07:54:31;;;;;;;15.98;4.15;;;;;;;6.64;100.00;101368.66;5029964;28;20140;-67
2022/11/03 07:56:58;;;;;;;15.38;5.00;;;;;;;6.61;100.00;101374.16;5029588;28;20168;-69
2022/11/03 07:59:34;;;;;;;18.23;5.75;;;;;;;6.69;100.00;101377.28;5031722;28;20033;-69
2022/11/03 08:02:01;;;;;;;15.93;3.53;;;;;;;6.72;100.00;101382.47;5030095;28;20533;-67
2022/11/03 08:04:34;;;;;;;16.40;6.05;;;;;;;6.71;100.00;101375.38;5031306;28;20029;-69
2022/11/03 08:07:00;;;;;;;16.88;4.30;;;;;;;6.73;100.00;101376.19;5031238;28;20021;-69
2022/11/03 08:09:26;;;;;;;13.15;3.38;;;;;;;6.78;100.00;101382.13;5031709;28;20037;-69
2022/11/03 08:11:51;;;;;;;20.15;6.35;;;;;;;6.83;100.00;101380.06;5031822;28;20029;-69
2022/11/03 08:14:17;;;;;;;23.15;3.85;;;;;;;6.89;100.00;101387.78;5030280;28;20063;-68
2022/11/03 08:16:43;;;;;;;13.48;3.70;;;;;;;6.88;100.00;101386.00;5031563;28;20034;-68
2022/11/03 08:19:09;;;;;;;14.07;4.10;;;;;;;6.97;100.00;101397.16;5029988;28;20128;-69
2022/11/03 08:21:35;;;;;;;11.75;3.67;;;;;;;7.09;100.00;101388.47;5029508;28;20068;-69
2022/11/03 08:24:00;;;;;;;14.95;3.55;;;;;;;7.14;100.00;101384.59;5031256;28;20108;-69
2022/11/03 08:26:26;;;;;;;18.02;3.75;;;;;;;7.19;100.00;101381.66;5030993;28;20030;-70
2022/11/03 08:28:52;;;;;;;21.58;3.53;;;;;;;7.21;100.00;101393.13;5031354;28;20459;-69
2022/11/03 08:31:18;;;;;;;15.27;3.30;;;;;;;7.26;100.00;101382.19;5031290;28;20036;-68
2022/11/03 08:33:44;;;;;;;14.35;3.35;;;;;;;7.31;100.00;101380.97;5030668;28;20143;-70
2022/11/03 08:36:10;;;;;;;26.98;5.80;;;;;;;7.36;100.00;101370.84;5029584;28;20096;-70
2022/11/03 08:38:36;;;;;;;20.27;5.32;;;;;;;7.31;100.00;101380.97;5029294;28;20029;-68
2022/11/03 08:41:02;;;;;;;17.98;3.63;;;;;;;7.35;100.00;101376.28;5030003;28;20040;-70
2022/11/03 08:43:28;;;;;;;18.05;3.55;;;;;;;7.40;100.00;101377.78;5029968;28;20140;-69
2022/11/03 08:45:53;;;;;;;14.32;4.63;;;;;;;7.45;100.00;101382.88;5030611;28;20029;-69
2022/11/03 08:48:26;;;;;;;19.50;4.00;;;;;;;7.44;100.00;101376.66;5030243;28;20091;-70
2022/11/03 08:50:55;;;;;;;17.67;3.85;;;;;;;7.47;100.00;101387.16;5031074;28;20031;-69
2022/11/03 08:53:23;;;;;;;13.48;2.47;;;;;;;7.57;100.00;101381.31;5029730;28;20025;-69
2022/11/03 08:55:49;;;;;;;15.77;3.15;;;;;;;7.68;100.00;101384.19;5032436;28;20133;-69
2022/11/03 08:58:15;;;;;;;15.65;4.20;;;;;;;7.63;100.00;101386.28;5030337;28;20437;-70
2022/11/03 09:00:40;;;;;;;15.75;4.15;;;;;;;7.65;100.00;101379.03;5029627;28;20488;-69
2022/11/03 09:03:06;;;;;;;21.15;3.55;;;;;;;7.75;100.00;101374.88;5030362;28;20064;-70
2022/11/03 09:05:39;;;;;;;15.13;4.20;;;;;;;7.80;100.00;101378.13;5028680;28;20398;-69
2022/11/03 09:08:05;;;;;;;13.73;3.10;;;;;;;7.90;100.00;101383.81;5030785;28;20041;-69
2022/11/03 09:10:30;;;;;;;17.63;4.47;;;;;;;7.94;100.00;101386.22;5030813;28;20026;-70
2022/11/03 09:12:56;;;;;;;17.98;2.60;;;;;;;7.84;100.00;101387.72;5030621;28;20108;-72
2022/11/03 09:15:22;;;;;;;27.75;6.80;;;;;;;8.00;100.00;101388.53;5029008;28;20089;-69
2022/11/03 09:17:47;;;;;;;16.45;3.05;;;;;;;8.26;100.00;101396.84;5029189;28;20079;-70
2022/11/03 09:20:13;;;;;;;19.75;10.50;;;;;;;8.49;100.00;101403.50;5030956;28;20044;-71
2022/11/03 09:22:39;;;;;;;11.68;2.53;;;;;;;8.67;100.00;101394.31;5030814;28;20448;-70
2022/11/03 09:25:05;;;;;;;15.05;3.15;;;;;;;8.30;100.00;101409.09;5030313;28;20056;-71
2022/11/03 09:27:31;;;;;;;21.35;3.40;;;;;;;8.57;100.00;101402.09;5029182;28;20052;-71
2022/11/03 09:29:56;;;;;;;17.33;3.38;;;;;;;8.77;100.00;101405.34;5029628;28;20483;-72
2022/11/03 09:32:22;;;;;;;11.32;2.63;;;;;;;9.01;100.00;101391.25;5031194;28;20490;-72
2022/11/03 09:34:48;;;;;;;10.70;2.67;;;;;;;8.94;100.00;101397.97;5032218;28;20324;-71
2022/11/03 09:37:14;;;;;;;9.63;2.80;;;;;;;9.51;100.00;101399.66;5034294;28;20045;-70
2022/11/03 09:39:41;;;;;;;11.38;2.40;;;;;;;9.58;100.00;101385.75;5032627;28;20538;-71
2022/11/03 09:42:09;;;;;;;13.70;2.78;;;;;;;9.53;100.00;101400.44;5034069;28;20108;-71
2022/11/03 09:44:35;;;;;;;12.45;3.60;;;;;;;9.63;100.00;101385.44;5033708;28;20025;-72
2022/11/03 09:47:03;;;;;;;12.60;3.03;;;;;;;9.59;100.00;101375.88;5032249;28;20084;-71
2022/11/03 09:49:32;;;;;;;13.30;2.55;;;;;;;9.15;100.00;101393.06;5034185;28;20546;-71
2022/11/03 09:52:00;;;;;;;11.07;2.80;;;;;;;9.56;100.00;101394.84;5032488;28;20041;-73
2022/11/03 09:54:28;;;;;;;20.90;3.92;;;;;;;9.86;99.25;101390.13;5032985;28;20078;-72
2022/11/03 09:56:57;;;;;;;16.75;4.40;;;;;;;9.53;98.23;101397.75;5031867;28;20081;-72
2022/11/03 09:59:23;;;;;;;11.27;3.58;;;;;;;9.80;98.01;101401.31;5033331;28;20111;-72
2022/11/03 10:01:52;;;;;;;12.57;3.17;;;;;;;10.14;95.42;101393.66;5032876;28;20029;-73
2022/11/03 10:04:28;;;;;;;11.95;1.92;;;;;;;9.72;95.35;101392.88;5033207;28;20504;-71
2022/11/03 10:06:58;;;;;;;10.55;2.10;;;;;;;10.27;95.12;101393.72;5033054;28;20044;-72
2022/11/03 10:09:27;;;;;;;9.30;2.70;;;;;;;9.47;95.13;101399.03;5032021;28;20394;-73
2022/11/03 10:11:54;;;;;;;12.90;3.25;;;;;;;9.53;95.81;101403.13;5032223;28;20033;-73
2022/11/03 10:14:21;;;;;;;15.40;3.17;;;;;;;9.79;96.21;101399.59;5033419;28;20132;-70
2022/11/03 10:16:56;;;;;;;10.18;2.50;;;;;;;10.04;94.08;101393.41;5031248;28;20478;-72
2022/11/03 10:19:23;;;;;;;8.80;2.42;;;;;;;9.65;94.77;101391.56;5031671;28;20080;-72
2022/11/03 10:21:50;;;;;;;10.35;3.10;;;;;;;9.63;95.71;101402.41;5031476;28;20029;-71
2022/11/03 10:24:15;;;;;;;14.82;2.28;;;;;;;10.09;96.69;101393.13;5031136;28;20065;-72
2022/11/03 10:26:51;;;;;;;10.98;2.97;;;;;;;9.92;95.37;101396.94;5032595;28;20072;-72
2022/11/03 10:29:22;;;;;;;11.18;4.00;;;;;;;10.10;94.74;101394.84;5032760;28;20045;-72
2022/11/03 10:31:50;;;;;;;13.25;3.08;;;;;;;9.87;94.73;101391.84;5032641;28;20068;-71
2022/11/03 10:34:36;;;;;;;9.25;2.58;;;;;;;9.57;94.88;101388.53;5031355;28;20061;-71
2022/11/03 10:37:20;;;;;;;13.35;5.45;;;;;;;9.49;94.43;101385.50;5032163;28;20051;-71
2022/11/03 10:39:51;;;;;;;10.13;2.33;;;;;;;9.58;95.44;101384.91;5031985;28;20025;-72
2022/11/03 10:42:30;;;;;;;10.02;1.88;;;;;;;9.74;93.66;101385.59;5031287;28;20033;-70
2022/11/03 10:45:16;;;;;;;8.52;2.20;;;;;;;9.59;95.49;101375.88;5030856;28;20049;-70
2022/11/03 10:47:42;;;;;;;13.98;2.20;;;;;;;9.56;94.60;101381.44;5030465;28;20482;-70
2022/11/03 10:50:23;;;;;;;9.00;2.00;;;;;;;9.54;95.13;101378.84;5032374;28;20036;-70
2022/11/03 10:52:50;;;;;;;19.38;3.42;;;;;;;9.29;93.90;101376.94;5031037;28;20052;-70
2022/11/03 10:55:17;;;;;;;15.30;2.42;;;;;;;9.46;92.96;101386.56;5030257;28;20045;-71
2022/11/03 10:57:43;;;;;;;8.50;2.00;;;;;;;9.47;93.08;101382.06;5030561;28;20033;-70
2022/11/03 11:00:16;;;;;;;9.30;2.17;;;;;;;9.59;93.65;101381.25;5030774;28;20033;-69
2022/11/03 11:02:45;;;;;;;16.80;2.60;;;;;;;9.57;94.14;101375.09;5031561;28;20036;-69
2022/11/03 11:05:17;;;;;;;14.45;2.10;;;;;;;9.40;92.09;101376.22;5031956;28;20078;-68
2022/11/03 11:07:44;;;;;;;11.23;2.20;;;;;;;9.47;91.51;101376.69;5031907;28;20212;-70
2022/11/03 11:10:18;;;;;;;6.93;1.92;;;;;;;9.51;92.19;101378.19;5032040;28;20038;-70
2022/11/03 11:13:22;;;;;;;14.63;2.75;;;;;;;9.54;94.51;101378.00;5030211;28;20029;-71
2022/11/03 11:16:01;;;;;;;14.43;3.22;;;;;;;9.46;93.14;101372.28;5031535;28;20095;-69
2022/11/03 11:18:26;;;;;;;12.13;2.13;;;;;;;9.50;94.13;101365.75;5029862;28;20033;-69
2022/11/03 11:20:52;;;;;;;11.82;2.38;;;;;;;9.42;93.15;101370.75;5031892;28;20048;-69
2022/11/03 11:23:30;;;;;;;13.23;3.20;;;;;;;9.43;92.55;101372.50;5030806;28;20037;-69
2022/11/03 11:26:05;;;;;;;12.23;2.38;;;;;;;9.48;91.83;101365.00;5031999;28;20040;-70
2022/11/03 11:28:31;;;;;;;17.45;1.92;;;;;;;9.49;91.24;101358.66;5031571;28;20056;-68
2022/11/03 11:30:58;;;;;;;9.52;2.08;;;;;;;9.58;92.57;101358.91;5030070;28;20037;-67
2022/11/03 11:33:27;;;;;;;11.30;2.03;;;;;;;9.58;91.24;101352.69;5031868;28;20497;-69
2022/11/03 11:36:01;;;;;;;10.82;2.22;;;;;;;9.63;90.63;101350.56;5032081;28;20112;-70
2022/11/03 11:38:50;;;;;;;11.13;2.05;;;;;;;9.63;90.72;101340.66;5030204;28;20045;-69
2022/11/03 11:41:15;;;;;;;14.40;2.58;;;;;;;9.73;90.28;101351.63;5031459;28;20112;-68
2022/11/03 11:43:41;;;;;;;12.18;2.70;;;;;;;9.75;90.06;101349.72;5029975;28;20465;-68
2022/11/03 11:46:22;;;;;;;14.50;2.33;;;;;;;9.76;89.08;101346.09;5031088;28;20071;-68
2022/11/03 11:49:02;;;;;;;14.48;2.50;;;;;;;9.84;89.32;101349.09;5030244;28;20474;-68